Time;durP1;ratioP1;P1;durP2;ratioP2;P2;SDS_P1;SDS_P2;PMS_P1;PMS_P2;Temp;Humidity;BMP_temperature;BMP_pressure;BME280_temperature;BME280_humidity;BME280_pressure;Samples;Min_cycle;Max_cycle;Signal;HPM_P1;HPM_P2
2023/03/11 00:01:43;;;;;;;2.20;1.00;;;;;;;2.44;85.58;97619.13;4133053;28;20252;-49
2023/03/11 00:03:45;;;;;;;1.70;1.35;;;;;;;2.48;86.48;97629.25;4120064;28;20201;-48
2023/03/11 00:05:46;;;;;;;2.50;1.13;;;;;;;2.53;87.54;97632.13;4134490;28;20280;-48
2023/03/11 00:07:48;;;;;;;3.05;1.20;;;;;;;2.65;87.93;97630.34;4116788;28;20202;-48
2023/03/11 00:09:50;;;;;;;1.38;1.15;;;;;;;2.53;87.39;97632.13;4103522;28;20278;-49
2023/03/11 00:11:52;;;;;;;3.88;1.63;;;;;;;2.61;87.27;97629.13;4119935;28;20670;-48
2023/03/11 00:13:54;;;;;;;2.88;1.42;;;;;;;2.63;87.79;97632.47;4119726;28;20293;-48
2023/03/11 00:15:56;;;;;;;2.80;1.67;;;;;;;2.37;85.96;97632.69;4126672;28;20627;-48
2023/03/11 00:17:58;;;;;;;2.60;1.38;;;;;;;2.35;87.39;97637.47;4137864;28;20206;-48
2023/03/11 00:20:00;;;;;;;3.95;2.22;;;;;;;2.50;88.09;97637.97;4110705;28;20293;-48
2023/03/11 00:22:02;;;;;;;1.73;1.30;;;;;;;2.23;86.43;97641.09;4127536;28;20328;-50
2023/03/11 00:24:04;;;;;;;2.65;1.20;;;;;;;2.28;86.42;97649.38;4128759;28;20747;-50
2023/03/11 00:26:05;;;;;;;3.20;1.33;;;;;;;2.24;86.15;97650.84;4121051;28;20340;-51
2023/03/11 00:28:09;;;;;;;2.92;1.33;;;;;;;2.26;85.15;97635.25;4128348;28;20244;-50
2023/03/11 00:30:12;;;;;;;1.13;1.02;;;;;;;2.22;86.42;97642.94;4106031;28;20668;-48
2023/03/11 00:32:14;;;;;;;1.50;1.00;;;;;;;2.21;87.20;97637.81;4121280;28;20762;-48
2023/03/11 00:34:16;;;;;;;2.15;1.55;;;;;;;2.22;86.79;97642.94;4122091;28;20234;-47
2023/03/11 00:36:32;;;;;;;2.20;1.33;;;;;;;2.05;86.43;97649.94;4138351;28;20318;-48
2023/03/11 00:38:34;;;;;;;3.53;1.52;;;;;;;2.06;88.03;97656.97;4105324;28;20334;-50
2023/03/11 00:40:36;;;;;;;2.00;1.30;;;;;;;2.10;87.98;97662.78;4123518;28;20786;-48
2023/03/11 00:42:37;;;;;;;1.98;1.20;;;;;;;2.22;88.77;97664.53;4112784;28;20686;-48
2023/03/11 00:44:39;;;;;;;2.50;1.70;;;;;;;2.05;85.37;97644.53;4136621;28;20214;-48
2023/03/11 00:46:41;;;;;;;1.67;1.30;;;;;;;2.14;86.90;97664.00;4123821;28;20228;-48
2023/03/11 00:48:42;;;;;;;1.95;1.80;;;;;;;2.03;86.61;97646.66;4112907;28;20293;-48
2023/03/11 00:50:45;;;;;;;1.92;1.38;;;;;;;1.99;87.37;97656.19;4123213;28;20214;-49
2023/03/11 00:52:48;;;;;;;2.53;1.50;;;;;;;2.13;87.60;97636.19;4121619;28;20261;-48
2023/03/11 00:54:49;;;;;;;1.63;1.45;;;;;;;2.05;86.73;97655.34;4101894;28;20218;-50
2023/03/11 00:56:51;;;;;;;4.10;2.30;;;;;;;2.01;87.56;97637.94;4121655;28;20294;-49
2023/03/11 00:58:52;;;;;;;2.38;1.70;;;;;;;2.00;88.55;97655.16;4128448;28;20650;-50
2023/03/11 01:00:54;;;;;;;2.22;1.17;;;;;;;2.21;88.99;97654.00;4121463;28;20228;-49
2023/03/11 01:02:56;;;;;;;4.78;2.35;;;;;;;1.79;86.80;97660.88;4140090;28;20805;-49
2023/03/11 01:04:58;;;;;;;2.55;1.48;;;;;;;1.78;86.95;97653.84;4120917;28;20293;-49
2023/03/11 01:06:59;;;;;;;2.85;1.88;;;;;;;1.89;88.13;97650.44;4121475;28;20232;-49
2023/03/11 01:09:01;;;;;;;4.10;2.83;;;;;;;1.89;87.96;97653.13;4127974;28;20718;-49
2023/03/11 01:11:05;;;;;;;2.05;1.27;;;;;;;2.00;89.00;97657.84;4121407;28;20662;-49
2023/03/11 01:13:06;;;;;;;3.25;1.75;;;;;;;2.03;88.35;97656.59;4121514;28;20249;-49
2023/03/11 01:15:14;;;;;;;3.53;1.40;;;;;;;1.83;87.58;97651.34;4120318;28;20226;-49
2023/03/11 01:17:15;;;;;;;6.50;1.50;;;;;;;1.90;88.64;97653.97;4123173;28;20202;-48
2023/03/11 01:19:17;;;;;;;3.42;1.88;;;;;;;1.84;88.01;97652.97;4111978;28;20241;-48
2023/03/11 01:21:19;;;;;;;3.80;2.15;;;;;;;1.77;87.81;97656.75;4126024;28;20210;-49
2023/03/11 01:23:23;;;;;;;12.27;1.83;;;;;;;1.89;89.14;97660.44;4120636;28;20242;-49
2023/03/11 01:25:25;;;;;;;2.50;2.00;;;;;;;1.81;87.66;97652.59;4121622;28;20306;-48
2023/03/11 01:27:27;;;;;;;1.60;1.45;;;;;;;1.83;89.74;97662.13;4120205;28;20686;-48
2023/03/11 01:29:29;;;;;;;5.60;1.98;;;;;;;1.69;88.05;97660.50;4126280;28;20228;-48
2023/03/11 01:31:30;;;;;;;2.88;1.77;;;;;;;1.59;88.42;97648.53;4118032;28;20306;-48
2023/03/11 01:33:32;;;;;;;2.85;2.00;;;;;;;1.66;89.06;97666.34;4121818;28;20676;-50
2023/03/11 01:35:34;;;;;;;5.78;2.20;;;;;;;1.67;90.46;97668.00;4122138;28;20668;-49
2023/03/11 01:37:36;;;;;;;4.97;1.88;;;;;;;1.66;90.34;97671.75;4107036;28;20214;-48
2023/03/11 01:39:37;;;;;;;3.05;2.70;;;;;;;1.71;89.93;97663.84;4126659;28;20298;-50
2023/03/11 01:41:39;;;;;;;3.50;2.08;;;;;;;1.73;90.72;97675.22;4137546;28;20225;-49
2023/03/11 01:43:44;;;;;;;2.85;1.60;;;;;;;1.81;90.08;97696.53;4126998;28;20249;-49
2023/03/11 01:45:48;;;;;;;2.75;1.38;;;;;;;1.72;88.58;97697.84;4134833;28;20233;-49
2023/03/11 01:47:50;;;;;;;1.60;1.50;;;;;;;1.78;89.66;97691.59;4135230;28;20229;-49
2023/03/11 01:49:52;;;;;;;4.50;1.88;;;;;;;1.75;89.21;97702.78;4121499;28;20210;-49
2023/03/11 01:51:56;;;;;;;1.50;1.40;;;;;;;1.65;87.12;97698.91;4138092;28;20829;-50
2023/03/11 01:54:00;;;;;;;3.47;1.17;;;;;;;1.74;88.93;97711.94;4111783;28;20202;-50
2023/03/11 01:56:03;;;;;;;3.30;1.10;;;;;;;1.77;88.59;97707.97;4109381;28;20202;-49
2023/03/11 01:58:08;;;;;;;3.05;1.30;;;;;;;1.77;88.35;97706.13;4136728;28;20288;-49
2023/03/11 02:00:11;;;;;;;7.95;1.60;;;;;;;1.56;88.45;97692.94;4125500;28;20275;-49
2023/03/11 02:02:19;;;;;;;1.70;1.20;;;;;;;1.55;88.24;97696.66;4121834;28;20655;-49
2023/03/11 02:04:20;;;;;;;1.45;1.30;;;;;;;1.41;88.33;97692.38;4138525;28;20300;-49
2023/03/11 02:06:23;;;;;;;3.70;1.38;;;;;;;1.53;89.40;97687.97;4119638;28;20237;-49
2023/03/11 02:08:24;;;;;;;3.00;1.75;;;;;;;1.64;89.56;97684.63;4137563;28;20679;-49
2023/03/11 02:10:26;;;;;;;1.38;1.27;;;;;;;1.61;89.03;97689.63;4122422;28;20625;-49
2023/03/11 02:12:30;;;;;;;3.05;1.52;;;;;;;1.69;88.45;97679.38;4121635;28;20266;-49
2023/03/11 02:14:32;;;;;;;1.58;1.25;;;;;;;1.77;88.67;97684.56;4137684;28;20218;-48
2023/03/11 02:16:34;;;;;;;0.95;0.95;;;;;;;1.59;88.70;97670.09;4120159;28;20301;-49
2023/03/11 02:18:36;;;;;;;2.45;1.40;;;;;;;1.52;89.40;97663.91;4126807;28;20329;-48
2023/03/11 02:21:07;;;;;;;2.15;2.00;;;;;;;1.54;89.42;97667.25;4118140;28;20296;-49
2023/03/11 02:23:10;;;;;;;3.78;1.80;;;;;;;1.59;90.02;97662.88;4106675;28;20238;-49
2023/03/11 02:25:50;;;;;;;6.63;2.08;;;;;;;1.35;90.50;97674.34;4127561;28;20294;-50
2023/03/11 02:27:53;;;;;;;5.18;1.80;;;;;;;1.53;91.13;97671.81;4121181;28;20723;-50
2023/03/11 02:29:55;;;;;;;3.42;1.83;;;;;;;1.48;90.60;97676.19;4109816;28;20210;-50
2023/03/11 02:31:59;;;;;;;3.97;2.28;;;;;;;1.48;90.26;97668.91;4118991;28;20230;-49
2023/03/11 02:34:01;;;;;;;2.35;1.58;;;;;;;1.46;90.46;97679.09;4122302;28;20260;-50
2023/03/11 02:36:04;;;;;;;4.10;1.48;;;;;;;1.54;90.63;97678.84;4118884;28;20238;-50
2023/03/11 02:38:05;;;;;;;6.57;1.95;;;;;;;1.40;90.26;97682.63;4136143;28;20232;-49
2023/03/11 02:40:33;;;;;;;3.50;1.52;;;;;;;1.27;89.21;97679.97;4116609;28;20210;-49
2023/03/11 02:42:34;;;;;;;5.90;1.30;;;;;;;1.36;90.80;97684.13;4122303;28;20811;-50
2023/03/11 02:44:37;;;;;;;1.52;1.42;;;;;;;1.42;90.50;97691.31;4105373;28;20230;-50
2023/03/11 02:46:40;;;;;;;8.38;1.40;;;;;;;1.42;91.80;97680.53;4121017;28;20245;-50
2023/03/11 02:48:42;;;;;;;2.88;1.92;;;;;;;1.43;91.22;97676.84;4134089;28;20205;-49
2023/03/11 02:50:45;;;;;;;5.40;1.67;;;;;;;1.43;92.00;97686.78;4136050;28;21391;-50
2023/03/11 02:52:48;;;;;;;2.08;1.50;;;;;;;1.30;91.41;97682.28;4134339;28;20291;-49
2023/03/11 02:54:50;;;;;;;8.30;1.85;;;;;;;1.29;91.26;97680.59;4103783;28;20673;-49
2023/03/11 02:56:52;;;;;;;2.22;2.05;;;;;;;1.17;91.59;97687.69;4119648;28;20598;-49
2023/03/11 02:58:53;;;;;;;2.17;1.55;;;;;;;1.21;91.54;97686.22;4120504;28;20218;-50
2023/03/11 03:00:55;;;;;;;1.67;1.58;;;;;;;1.22;91.63;97679.78;4120346;28;20214;-50
2023/03/11 03:02:57;;;;;;;1.60;1.50;;;;;;;1.28;92.10;97686.22;4121562;28;20677;-50
2023/03/11 03:04:58;;;;;;;2.72;1.30;;;;;;;1.31;91.94;97693.84;4124340;28;20205;-50
2023/03/11 03:07:00;;;;;;;3.28;1.33;;;;;;;1.24;91.17;97693.91;4125334;28;20222;-50
2023/03/11 03:09:02;;;;;;;3.95;1.25;;;;;;;1.39;91.83;97697.16;4135068;28;20344;-50
2023/03/11 03:11:04;;;;;;;3.08;1.30;;;;;;;1.16;90.27;97686.03;4123356;28;20301;-49
2023/03/11 03:13:06;;;;;;;2.42;1.65;;;;;;;1.16;90.47;97699.53;4119628;28;20220;-50
2023/03/11 03:15:09;;;;;;;2.63;1.38;;;;;;;1.06;90.17;97709.03;4104513;28;20306;-49
2023/03/11 03:17:10;;;;;;;4.65;1.45;;;;;;;1.17;91.00;97711.94;4118504;28;20206;-49
2023/03/11 03:19:12;;;;;;;5.25;1.55;;;;;;;1.12;90.63;97711.75;4119074;28;20214;-50
2023/03/11 03:21:14;;;;;;;2.67;1.40;;;;;;;1.01;90.81;97719.63;4119974;28;20751;-50
2023/03/11 03:23:16;;;;;;;2.05;1.40;;;;;;;1.12;92.07;97716.28;4120348;28;20210;-50
2023/03/11 03:25:18;;;;;;;2.28;1.42;;;;;;;1.13;91.45;97717.94;4120814;28;20301;-49
2023/03/11 03:27:19;;;;;;;6.75;2.95;;;;;;;1.14;91.18;97720.44;4126237;28;20312;-51
2023/03/11 03:29:21;;;;;;;2.35;1.63;;;;;;;1.03;91.54;97713.00;4111727;28;20299;-50
2023/03/11 03:31:23;;;;;;;2.95;1.90;;;;;;;1.06;92.57;97712.56;4135353;28;20217;-50
2023/03/11 03:33:24;;;;;;;2.47;1.50;;;;;;;1.14;92.87;97715.03;4123880;28;20294;-49
2023/03/11 03:35:26;;;;;;;1.83;1.40;;;;;;;1.11;92.97;97710.09;4115954;28;20821;-49
2023/03/11 03:37:31;;;;;;;4.63;1.58;;;;;;;1.01;93.50;97715.06;4119067;28;20289;-50
2023/03/11 03:39:32;;;;;;;3.53;1.60;;;;;;;1.02;93.79;97719.41;4121031;28;20585;-49
2023/03/11 03:41:34;;;;;;;3.70;1.48;;;;;;;1.01;94.54;97716.94;4108988;28;20229;-50
2023/03/11 03:43:36;;;;;;;1.88;1.77;;;;;;;1.03;95.33;97709.47;4126990;28;20309;-50
2023/03/11 03:45:37;;;;;;;5.00;2.10;;;;;;;1.00;95.16;97713.41;4133077;28;20653;-50
2023/03/11 03:47:39;;;;;;;4.57;1.77;;;;;;;1.04;95.24;97719.22;4136350;28;20669;-51
2023/03/11 03:49:41;;;;;;;1.58;1.48;;;;;;;1.11;95.54;97726.25;4121021;28;20309;-50
2023/03/11 03:51:43;;;;;;;2.70;1.33;;;;;;;1.08;95.43;97723.97;4123409;28;20799;-50
2023/03/11 03:53:47;;;;;;;2.17;1.42;;;;;;;1.17;94.99;97722.72;4124187;28;20241;-49
2023/03/11 03:55:49;;;;;;;3.72;1.73;;;;;;;1.21;94.20;97732.00;4125458;28;20230;-49
2023/03/11 03:57:51;;;;;;;1.98;1.77;;;;;;;1.08;94.68;97725.84;4123517;28;20220;-51
2023/03/11 03:59:53;;;;;;;3.58;2.20;;;;;;;0.93;93.94;97723.38;4124728;28;20297;-50
2023/03/11 04:01:54;;;;;;;2.55;1.50;;;;;;;1.03;94.79;97726.47;4126436;28;20384;-50
2023/03/11 04:03:56;;;;;;;2.15;1.35;;;;;;;1.11;95.40;97734.31;4119044;28;20627;-50
2023/03/11 04:06:16;;;;;;;2.25;1.50;;;;;;;0.97;96.13;97734.53;4119392;28;20309;-50
2023/03/11 04:08:17;;;;;;;9.63;1.75;;;;;;;0.94;96.20;97734.97;4120055;28;20774;-50
2023/03/11 04:10:19;;;;;;;1.73;1.17;;;;;;;1.04;95.84;97728.13;4119092;28;20206;-49
2023/03/11 04:12:21;;;;;;;15.05;2.40;;;;;;;1.14;94.65;97736.59;4124529;28;20234;-49
2023/03/11 04:14:22;;;;;;;2.63;1.60;;;;;;;1.00;95.43;97740.34;4118901;28;20253;-49
2023/03/11 04:16:24;;;;;;;3.83;2.05;;;;;;;1.06;95.44;97752.97;4117335;28;20210;-50
2023/03/11 04:18:26;;;;;;;2.00;1.80;;;;;;;0.89;95.08;97738.28;4118678;28;20213;-49
2023/03/11 04:20:27;;;;;;;2.50;1.20;;;;;;;0.76;96.22;97742.84;4126259;28;20253;-50
2023/03/11 04:22:29;;;;;;;3.00;1.50;;;;;;;0.87;96.69;97740.34;4118032;28;20320;-50
2023/03/11 04:24:31;;;;;;;6.72;1.65;;;;;;;0.75;96.44;97747.41;4125084;28;20758;-49
2023/03/11 04:26:33;;;;;;;2.70;1.98;;;;;;;0.56;96.85;97753.59;4120694;28;20230;-49
2023/03/11 04:28:34;;;;;;;3.45;1.85;;;;;;;0.64;97.57;97744.50;4117264;28;20837;-49
2023/03/11 04:30:36;;;;;;;1.40;1.30;;;;;;;0.73;97.52;97741.41;4136206;28;20209;-49
2023/03/11 04:32:38;;;;;;;5.35;1.83;;;;;;;0.71;97.19;97740.78;4125289;28;20240;-49
2023/03/11 04:34:40;;;;;;;2.97;2.40;;;;;;;0.76;97.29;97749.06;4124769;28;20289;-49
2023/03/11 04:36:42;;;;;;;1.77;1.48;;;;;;;0.82;97.07;97752.78;4125292;28;20203;-49
2023/03/11 04:38:45;;;;;;;2.13;1.90;;;;;;;0.91;96.89;97760.44;4118263;28;20289;-49
2023/03/11 04:40:47;;;;;;;1.35;1.17;;;;;;;0.78;97.24;97752.38;4117373;28;20238;-49
2023/03/11 04:42:49;;;;;;;2.47;2.00;;;;;;;0.79;97.26;97764.81;4126458;28;20630;-51
2023/03/11 04:44:50;;;;;;;3.72;1.45;;;;;;;0.77;97.80;97761.50;4124779;28;20614;-51
2023/03/11 04:46:52;;;;;;;2.97;1.70;;;;;;;0.73;97.45;97762.94;4124218;28;20206;-49
2023/03/11 04:48:54;;;;;;;2.72;1.50;;;;;;;0.65;96.54;97763.16;4120519;28;20257;-49
2023/03/11 04:50:56;;;;;;;3.08;1.80;;;;;;;0.79;97.97;97759.41;4132888;28;20214;-50
2023/03/11 04:52:57;;;;;;;2.88;2.20;;;;;;;0.58;98.07;97770.38;4124567;28;20276;-49
2023/03/11 04:54:59;;;;;;;3.67;2.22;;;;;;;0.54;97.24;97777.19;4137540;28;20316;-48
2023/03/11 04:57:01;;;;;;;2.13;1.23;;;;;;;0.35;98.31;97769.13;4117406;28;20257;-50
2023/03/11 04:59:02;;;;;;;3.50;1.90;;;;;;;0.21;99.58;97765.56;4133488;28;20313;-51
2023/03/11 05:01:04;;;;;;;5.10;1.57;;;;;;;0.15;100.00;97769.06;4133779;28;20639;-49
2023/03/11 05:03:06;;;;;;;4.65;1.77;;;;;;;0.18;100.00;97765.97;4126207;28;20593;-49
2023/03/11 05:05:08;;;;;;;1.73;1.47;;;;;;;0.29;99.54;97767.25;4127823;28;20670;-49
2023/03/11 05:07:10;;;;;;;4.40;2.00;;;;;;;0.17;100.00;97764.31;4110024;28;20206;-49
2023/03/11 05:09:12;;;;;;;5.37;2.03;;;;;;;0.25;100.00;97769.50;4123094;28;20439;-50
2023/03/11 05:11:14;;;;;;;3.30;1.57;;;;;;;0.31;100.00;97760.63;4127259;28;20210;-49
2023/03/11 05:13:15;;;;;;;2.30;2.10;;;;;;;0.33;100.00;97763.94;4126212;28;20324;-50
2023/03/11 05:15:17;;;;;;;2.23;2.07;;;;;;;0.37;99.90;97759.81;4138593;28;20273;-49
2023/03/11 05:17:19;;;;;;;2.97;1.83;;;;;;;0.46;100.00;97766.66;4139654;28;20303;-49
2023/03/11 05:19:30;;;;;;;4.40;1.70;;;;;;;0.43;100.00;97756.31;4120460;28;20202;-50
2023/03/11 05:21:31;;;;;;;12.05;2.67;;;;;;;0.47;100.00;97768.28;4137381;28;20614;-51
2023/03/11 05:23:33;;;;;;;4.43;1.80;;;;;;;0.47;100.00;97771.00;4128414;28;20293;-51
2023/03/11 05:25:35;;;;;;;3.90;2.50;;;;;;;0.63;100.00;97770.59;4112165;28;20708;-49
2023/03/11 05:27:36;;;;;;;2.58;1.80;;;;;;;0.52;99.34;97773.91;4136425;28;20218;-50
2023/03/11 05:29:38;;;;;;;3.17;1.70;;;;;;;0.49;99.86;97782.38;4119545;28;20335;-50
2023/03/11 05:31:40;;;;;;;3.78;1.73;;;;;;;0.54;99.75;97782.59;4122275;28;20325;-50
2023/03/11 05:33:41;;;;;;;5.18;1.67;;;;;;;0.46;99.86;97774.72;4127765;28;20218;-49
2023/03/11 05:35:43;;;;;;;3.13;1.52;;;;;;;0.52;100.00;97779.28;4125810;28;20225;-49
2023/03/11 05:37:48;;;;;;;2.80;1.70;;;;;;;0.67;99.16;97777.22;4132813;28;20292;-49
2023/03/11 05:39:51;;;;;;;5.10;1.88;;;;;;;0.62;99.37;97782.38;4123516;28;20206;-50
2023/03/11 05:41:55;;;;;;;2.75;2.55;;;;;;;0.60;99.63;97787.16;4126548;28;20225;-50
2023/03/11 05:43:56;;;;;;;4.05;1.98;;;;;;;0.63;99.19;97794.00;4135927;28;20869;-50
2023/03/11 05:45:58;;;;;;;4.07;2.03;;;;;;;0.39;99.87;97786.50;4127306;28;20268;-50
2023/03/11 05:48:00;;;;;;;3.30;1.65;;;;;;;0.34;99.99;97787.09;4135189;28;20816;-50
2023/03/11 05:50:02;;;;;;;4.35;1.55;;;;;;;0.36;99.94;97790.41;4126415;28;20221;-50
2023/03/11 05:52:04;;;;;;;3.67;2.10;;;;;;;0.32;100.00;97783.81;4134690;28;20260;-50
2023/03/11 05:54:13;;;;;;;3.38;1.98;;;;;;;0.28;100.00;97787.91;4136499;28;20237;-50
2023/03/11 05:56:18;;;;;;;2.23;1.80;;;;;;;0.28;100.00;97782.53;4105900;28;20198;-49
2023/03/11 05:58:19;;;;;;;3.95;2.10;;;;;;;0.38;100.00;97784.84;4125437;28;20305;-51
2023/03/11 06:00:21;;;;;;;2.67;2.47;;;;;;;0.34;100.00;97789.78;4126112;28;20218;-51
2023/03/11 06:02:23;;;;;;;2.28;2.03;;;;;;;0.30;100.00;97791.25;4108693;28;20332;-51
2023/03/11 06:04:25;;;;;;;3.67;2.10;;;;;;;0.31;100.00;97803.66;4119286;28;20281;-49
2023/03/11 06:06:27;;;;;;;5.03;1.93;;;;;;;0.33;100.00;97804.28;4117240;28;20222;-50
2023/03/11 06:08:29;;;;;;;3.33;2.20;;;;;;;0.42;100.00;97802.25;4122141;28;20253;-50
2023/03/11 06:10:31;;;;;;;2.80;2.22;;;;;;;0.42;100.00;97805.75;4124846;28;20214;-49
2023/03/11 06:12:34;;;;;;;2.17;2.03;;;;;;;0.40;100.00;97802.44;4123874;28;20257;-51
2023/03/11 06:14:37;;;;;;;3.80;2.00;;;;;;;0.48;100.00;97812.19;4116725;28;20221;-50
2023/03/11 06:16:40;;;;;;;3.78;1.80;;;;;;;0.50;100.00;97808.25;4109781;28;20214;-50
2023/03/11 06:18:42;;;;;;;1.37;1.33;;;;;;;0.53;100.00;97810.53;4135639;28;20213;-50
2023/03/11 06:20:43;;;;;;;5.67;2.17;;;;;;;0.52;100.00;97810.72;4112472;28;20203;-51
2023/03/11 06:22:48;;;;;;;1.83;1.67;;;;;;;0.60;99.49;97819.44;4113694;28;20313;-50
2023/03/11 06:24:50;;;;;;;2.65;1.70;;;;;;;0.41;100.00;97809.47;4125829;28;20210;-50
2023/03/11 06:26:52;;;;;;;3.45;2.00;;;;;;;0.26;100.00;97819.59;4122042;28;20206;-50
2023/03/11 06:28:54;;;;;;;3.37;1.60;;;;;;;0.35;100.00;97829.13;4122540;28;20345;-50
2023/03/11 06:30:57;;;;;;;5.27;3.37;;;;;;;0.38;100.00;97830.56;4109666;28;20211;-51
2023/03/11 06:32:59;;;;;;;3.92;2.28;;;;;;;0.50;100.00;97829.78;4135459;28;20226;-50
2023/03/11 06:35:03;;;;;;;2.17;1.83;;;;;;;0.41;99.88;97839.06;4120869;28;20305;-49
2023/03/11 06:37:05;;;;;;;3.43;3.13;;;;;;;0.45;99.57;97848.41;4124484;28;20707;-52
2023/03/11 06:39:06;;;;;;;4.65;1.77;;;;;;;0.41;99.86;97852.50;4134942;28;20296;-50
2023/03/11 06:41:09;;;;;;;5.83;1.70;;;;;;;0.53;99.60;97852.75;4125158;28;20564;-49
2023/03/11 06:43:10;;;;;;;2.00;1.90;;;;;;;0.54;99.62;97851.75;4120005;28;20280;-49
2023/03/11 06:45:12;;;;;;;4.32;1.60;;;;;;;0.54;99.53;97859.81;4110911;28;20744;-50
2023/03/11 06:47:14;;;;;;;3.88;2.22;;;;;;;0.62;99.86;97844.28;4126742;28;20220;-50
2023/03/11 06:49:16;;;;;;;5.85;2.83;;;;;;;0.67;99.97;97852.56;4121245;28;20328;-49
2023/03/11 06:51:20;;;;;;;7.97;4.22;;;;;;;0.92;99.64;97856.34;4121186;28;20230;-51
2023/03/11 06:53:22;;;;;;;7.03;4.20;;;;;;;1.30;100.00;97854.72;4108478;28;21115;-49
2023/03/11 06:55:24;;;;;;;4.60;3.33;;;;;;;1.75;100.00;97872.66;4123761;28;20250;-49
2023/03/11 06:57:26;;;;;;;4.72;3.10;;;;;;;2.12;100.00;97861.16;4117380;28;20636;-50
2023/03/11 06:59:28;;;;;;;8.25;2.25;;;;;;;2.59;99.21;97868.84;4119325;28;20301;-49
2023/03/11 07:01:29;;;;;;;5.90;2.60;;;;;;;2.60;96.43;97864.28;4117771;28;20257;-50
2023/03/11 07:03:32;;;;;;;2.42;1.70;;;;;;;3.51;96.90;97864.44;4134005;28;20243;-50
2023/03/11 07:05:33;;;;;;;2.45;1.95;;;;;;;3.11;92.02;97867.66;4125945;28;20662;-51
2023/03/11 07:07:35;;;;;;;9.73;2.42;;;;;;;3.89;93.87;97869.69;4104272;28;20298;-50
2023/03/11 07:09:37;;;;;;;5.70;2.10;;;;;;;4.80;93.21;97880.25;4134332;28;20260;-50
2023/03/11 07:11:38;;;;;;;3.15;1.55;;;;;;;4.49;87.88;97880.47;4122538;28;20230;-51
2023/03/11 07:13:40;;;;;;;3.60;2.05;;;;;;;4.16;85.79;97880.03;4120759;28;20205;-51
2023/03/11 07:15:42;;;;;;;2.63;1.58;;;;;;;3.98;85.11;97888.13;4124321;28;20706;-52
2023/03/11 07:17:43;;;;;;;2.08;1.65;;;;;;;3.75;86.16;97896.03;4120939;28;20217;-51
2023/03/11 07:19:45;;;;;;;2.58;2.10;;;;;;;3.17;85.41;97893.81;4120633;28;20214;-50
2023/03/11 07:21:47;;;;;;;3.20;1.70;;;;;;;2.71;88.33;97894.13;4120935;28;20739;-50
2023/03/11 07:23:53;;;;;;;6.10;1.50;;;;;;;2.68;89.51;97896.44;4120907;28;20639;-51
2023/03/11 07:25:55;;;;;;;3.20;1.88;;;;;;;2.78;89.49;97897.63;4120745;28;20289;-51
2023/03/11 07:27:56;;;;;;;2.25;2.00;;;;;;;3.06;90.09;97892.66;4136129;28;20241;-50
2023/03/11 07:30:00;;;;;;;5.78;1.95;;;;;;;3.50;89.56;97902.50;4126217;28;20699;-51
2023/03/11 07:32:02;;;;;;;2.05;1.80;;;;;;;3.43;87.83;97899.03;4120057;28;20254;-50
2023/03/11 07:34:10;;;;;;;7.45;1.70;;;;;;;3.88;87.69;97920.25;4119537;28;20662;-50
2023/03/11 07:36:17;;;;;;;4.93;2.03;;;;;;;4.17;86.46;97919.56;4105721;28;20211;-51
2023/03/11 07:38:19;;;;;;;8.48;2.60;;;;;;;4.29;84.35;97917.78;4119433;28;20275;-51
2023/03/11 07:40:21;;;;;;;6.20;1.90;;;;;;;4.40;83.82;97922.44;4122582;28;20198;-52
2023/03/11 07:42:23;;;;;;;5.40;2.35;;;;;;;5.32;84.80;97917.44;4135480;28;20288;-52
2023/03/11 07:44:24;;;;;;;2.60;1.33;;;;;;;5.62;79.41;97920.97;4135101;28;20233;-51
2023/03/11 07:46:28;;;;;;;4.43;1.98;;;;;;;5.75;80.25;97932.41;4120380;28;20206;-51
2023/03/11 07:48:30;;;;;;;4.90;1.55;;;;;;;6.30;79.77;97935.66;4120284;28;20222;-52
2023/03/11 07:50:31;;;;;;;6.45;2.15;;;;;;;6.32;73.32;97934.38;4120426;28;20619;-51
2023/03/11 07:52:33;;;;;;;2.35;2.15;;;;;;;7.29;74.53;97941.56;4118607;28;20750;-52
2023/03/11 07:54:35;;;;;;;4.72;1.52;;;;;;;6.88;72.93;97944.56;4118567;28;20272;-51
2023/03/11 07:56:37;;;;;;;7.32;1.77;;;;;;;6.12;72.06;97949.34;4134997;28;20240;-51
2023/03/11 07:58:39;;;;;;;6.18;2.20;;;;;;;6.83;71.73;97952.59;4130613;28;20581;-51
2023/03/11 08:00:41;;;;;;;8.80;2.13;;;;;;;6.80;66.18;97955.78;4135419;28;20758;-51
2023/03/11 08:02:42;;;;;;;5.50;1.65;;;;;;;7.25;68.65;97951.28;4134898;28;20233;-51
2023/03/11 08:04:44;;;;;;;3.40;1.52;;;;;;;7.87;69.14;97955.66;4136850;28;20220;-50
2023/03/11 08:06:46;;;;;;;4.68;2.95;;;;;;;8.04;68.82;97956.50;4110882;28;20199;-50
2023/03/11 08:08:49;;;;;;;2.92;2.30;;;;;;;8.68;68.09;97953.19;4133892;28;20225;-52
2023/03/11 08:10:50;;;;;;;2.78;1.65;;;;;;;8.50;65.61;97962.44;4119079;28;20289;-51
2023/03/11 08:12:52;;;;;;;4.85;2.45;;;;;;;8.96;62.73;97961.19;4118426;28;20268;-51
2023/03/11 08:14:54;;;;;;;7.03;1.55;;;;;;;7.77;62.30;97955.50;4134158;28;20231;-50
2023/03/11 08:16:55;;;;;;;6.22;2.10;;;;;;;8.90;62.28;97964.94;4117824;28;20289;-50
2023/03/11 08:18:57;;;;;;;3.08;1.13;;;;;;;9.00;62.08;97973.22;4124579;28;20834;-51
2023/03/11 08:21:04;;;;;;;3.60;1.35;;;;;;;9.18;61.82;97970.19;4119240;28;20211;-49
2023/03/11 08:23:06;;;;;;;2.30;1.20;;;;;;;9.50;60.80;97968.41;4125708;28;20236;-50
2023/03/11 08:25:08;;;;;;;2.92;1.65;;;;;;;9.78;60.60;97965.41;4117764;28;20277;-50
2023/03/11 08:27:11;;;;;;;5.78;2.17;;;;;;;9.53;58.54;97973.31;4123847;28;20242;-50
2023/03/11 08:29:12;;;;;;;5.57;1.63;;;;;;;9.28;56.78;97967.59;4126046;28;20226;-50
2023/03/11 08:31:16;;;;;;;4.60;1.50;;;;;;;8.87;59.34;97973.59;4115124;28;20598;-50
2023/03/11 08:33:18;;;;;;;4.70;1.33;;;;;;;9.72;58.51;97971.88;4133247;28;20213;-50
2023/03/11 08:35:19;;;;;;;2.30;1.65;;;;;;;10.10;56.86;97974.47;4137827;28;20646;-50
2023/03/11 08:37:21;;;;;;;3.83;1.60;;;;;;;11.06;57.86;97978.47;4122487;28;20238;-51
2023/03/11 08:39:24;;;;;;;3.17;1.33;;;;;;;9.32;54.28;97982.38;4126600;28;20210;-51
2023/03/11 08:41:27;;;;;;;3.15;1.60;;;;;;;8.93;58.71;97988.97;4137713;28;20303;-50
2023/03/11 08:43:28;;;;;;;3.83;1.73;;;;;;;8.63;55.58;97977.66;4129754;28;20217;-50
2023/03/11 08:45:30;;;;;;;2.35;1.30;;;;;;;9.23;57.41;97973.81;4109914;28;20572;-49
2023/03/11 08:47:36;;;;;;;3.42;1.55;;;;;;;8.71;54.61;97971.75;4128124;28;20213;-49
2023/03/11 08:49:38;;;;;;;3.75;1.77;;;;;;;9.31;55.91;97970.66;4134355;28;20234;-49
2023/03/11 08:51:41;;;;;;;4.78;1.30;;;;;;;9.23;58.08;97973.00;4129346;28;20595;-50
2023/03/11 08:53:43;;;;;;;4.25;1.65;;;;;;;8.97;56.59;97980.03;4123982;28;20218;-50
2023/03/11 08:55:44;;;;;;;4.63;1.40;;;;;;;8.30;57.16;97978.50;4137318;28;20209;-50
2023/03/11 08:57:46;;;;;;;3.22;1.42;;;;;;;9.07;56.10;97974.69;4105092;28;20542;-50
2023/03/11 09:02:46;;;;;;;6.68;1.90;;;;;;;8.92;58.64;97981.88;4117301;28;20233;-50
2023/03/11 09:04:48;;;;;;;3.20;1.45;;;;;;;9.52;57.57;97977.13;4120271;28;20261;-50
2023/03/11 09:06:50;;;;;;;6.00;1.80;;;;;;;10.14;53.51;97986.56;4133828;28;20202;-49
2023/03/11 09:08:52;;;;;;;2.90;1.63;;;;;;;9.65;54.24;97988.50;4120719;28;20393;-50
2023/03/11 09:10:53;;;;;;;2.72;1.00;;;;;;;10.10;55.18;97985.41;4123644;28;20659;-51
2023/03/11 09:12:55;;;;;;;2.92;1.48;;;;;;;10.25;53.09;97983.66;4120742;28;20230;-50
2023/03/11 09:14:57;;;;;;;1.27;1.10;;;;;;;9.65;51.46;97984.94;4122633;28;20696;-50
2023/03/11 09:16:58;;;;;;;2.30;1.25;;;;;;;9.30;52.60;97979.09;4121876;28;20271;-51
2023/03/11 09:19:02;;;;;;;1.58;1.17;;;;;;;8.98;51.21;97986.31;4119475;28;20285;-51
2023/03/11 09:21:04;;;;;;;3.47;1.55;;;;;;;8.88;50.07;97991.66;4118762;28;22637;-52
2023/03/11 09:23:07;;;;;;;1.75;1.10;;;;;;;9.13;50.72;97983.78;4133999;28;20320;-50
2023/03/11 09:25:11;;;;;;;3.17;1.20;;;;;;;8.78;51.04;97977.84;4133987;28;20313;-50
2023/03/11 09:27:14;;;;;;;3.13;1.17;;;;;;;7.23;50.14;97975.19;4120484;28;20254;-49
2023/03/11 09:29:15;;;;;;;5.28;1.55;;;;;;;7.68;51.96;97979.59;4101049;28;20326;-50
2023/03/11 09:31:17;;;;;;;3.45;1.67;;;;;;;6.95;52.66;97984.13;4133618;28;20328;-51
2023/03/11 09:33:19;;;;;;;3.70;1.17;;;;;;;7.39;51.87;97974.41;4119109;28;20294;-49
2023/03/11 09:35:21;;;;;;;2.30;1.17;;;;;;;8.25;54.68;97980.31;4120546;28;20234;-50
2023/03/11 09:37:23;;;;;;;1.73;1.20;;;;;;;9.22;49.88;97971.34;4116010;28;20529;-51
2023/03/11 09:39:24;;;;;;;1.67;1.30;;;;;;;9.40;51.49;97974.56;4120642;28;22298;-49
2023/03/11 09:41:31;;;;;;;2.97;1.60;;;;;;;9.49;50.95;97981.22;4120250;28;20647;-49
2023/03/11 09:43:54;;;;;;;2.80;1.38;;;;;;;9.24;49.83;97991.03;4135231;28;20213;-49
2023/03/11 09:46:17;;;;;;;2.13;0.95;;;;;;;7.41;48.93;97978.53;4134541;28;21194;-50
2023/03/11 09:48:33;;;;;;;1.23;1.00;;;;;;;6.81;49.36;97981.91;4137231;28;20260;-49